Time;durP1;ratioP1;P1;durP2;ratioP2;P2;SDS_P1;SDS_P2;PMS_P1;PMS_P2;Temp;Humidity;BMP_temperature;BMP_pressure;BME280_temperature;BME280_humidity;BME280_pressure;Samples;Min_cycle;Max_cycle;Signal;HPM_P1;HPM_P2
2021/10/04 00:01:29;;;;;;;18.52;5.90;;;;;;;;;;5028948;28;20040;-90
2021/10/04 00:03:55;;;;;;;17.77;4.63;;;;;;;;;;5031556;28;20139;-90
2021/10/04 00:06:22;;;;;;;17.98;5.57;;;;;;;;;;5012933;28;20021;-91
2021/10/04 00:08:55;;;;;;;16.42;6.18;;;;;;;;;;5045604;23;20211;-90
2021/10/04 00:25:25;;;;;;;21.83;5.18;;;;;;;;;;2538843;22;20616;-89
2021/10/04 00:28:18;;;;;;;17.40;6.50;;;;;;;;;;5004370;22;20110;-91
2021/10/04 00:38:46;;;;;;;22.50;7.22;;;;;;;;;;5010134;28;20088;-90
2021/10/04 00:43:50;;;;;;;25.20;6.72;;;;;;;;;;5042497;22;20089;-90
2021/10/04 00:46:15;;;;;;;27.95;7.22;;;;;;;;;;5016448;28;20772;-90
2021/10/04 00:48:47;;;;;;;19.92;7.40;;;;;;;;;;5017438;28;20033;-89
2021/10/04 00:51:20;;;;;;;25.00;8.98;;;;;;;;;;5015997;28;20083;-90
2021/10/04 00:53:46;;;;;;;25.30;8.20;;;;;;;;;;5017240;28;20028;-89
2021/10/04 00:56:12;;;;;;;24.65;8.93;;;;;;;;;;5016874;28;20030;-90
2021/10/04 00:58:40;;;;;;;21.88;7.43;;;;;;;;;;5037243;23;20505;-90
2021/10/04 01:01:08;;;;;;;18.42;7.45;;;;;;;;;;5123869;23;20088;-90
2021/10/04 01:03:41;;;;;;;23.45;8.02;;;;;;;;;;5034660;28;20597;-90
2021/10/04 01:06:11;;;;;;;19.48;8.80;;;;;;;;;;5034706;28;20029;-90
2021/10/04 01:08:40;;;;;;;23.00;8.95;;;;;;;;;;5023544;23;20050;-90
2021/10/04 01:11:09;;;;;;;20.20;7.80;;;;;;;;;;5014369;28;20072;-90
2021/10/04 01:13:35;;;;;;;23.95;9.40;;;;;;;;;;5012589;28;20060;-90
2021/10/04 01:21:10;;;;;;;22.60;8.52;;;;;;;;;;5047691;22;20052;-90
2021/10/04 01:23:36;;;;;;;25.52;8.63;;;;;;;;;;5035085;28;20048;-90
2021/10/04 01:26:01;;;;;;;26.42;9.80;;;;;;;;;;5037255;28;20025;-90
2021/10/04 01:28:27;;;;;;;22.80;8.57;;;;;;;;;;5052724;28;20041;-90
2021/10/04 01:31:01;;;;;;;24.90;9.02;;;;;;;;;;3223935;22;20206;-89
2021/10/04 01:36:27;;;;;;;31.65;9.88;;;;;;;;;;1528587;22;20307;-88
2021/10/04 01:38:56;;;;;;;18.70;8.63;;;;;;;;;;5013953;28;20083;-90
2021/10/04 01:41:23;;;;;;;28.85;8.45;;;;;;;;;;5030850;28;20091;-90
2021/10/04 01:43:49;;;;;;;19.65;8.55;;;;;;;;;;5015290;28;20021;-90
2021/10/04 01:46:16;;;;;;;20.83;8.70;;;;;;;;;;5015320;28;20079;-90
2021/10/04 01:48:46;;;;;;;26.88;9.75;;;;;;;;;;5015586;28;20021;-90
2021/10/04 01:51:16;;;;;;;23.23;8.98;;;;;;;;;;5037077;22;20475;-90
2021/10/04 01:53:43;;;;;;;26.30;9.70;;;;;;;;;;5013574;28;20441;-89
2021/10/04 01:56:09;;;;;;;38.42;9.23;;;;;;;;;;5024466;23;20088;-90
2021/10/04 01:58:36;;;;;;;20.20;10.40;;;;;;;;;;5011964;28;20029;-90
2021/10/04 02:01:03;;;;;;;24.50;9.63;;;;;;;;;;5014015;28;20025;-90
2021/10/04 02:03:35;;;;;;;26.17;9.68;;;;;;;;;;5018667;23;20054;-90
2021/10/04 02:06:03;;;;;;;21.70;9.98;;;;;;;;;;4991102;28;20147;-90
2021/10/04 02:08:29;;;;;;;31.02;10.57;;;;;;;;;;4991573;28;20053;-89
2021/10/04 02:10:54;;;;;;;20.83;10.70;;;;;;;;;;4992088;28;20018;-89
2021/10/04 02:13:20;;;;;;;19.45;9.80;;;;;;;;;;4991602;28;20022;-89
2021/10/04 02:15:45;;;;;;;16.95;9.27;;;;;;;;;;4991389;28;20033;-90
2021/10/04 02:18:12;;;;;;;26.67;10.45;;;;;;;;;;4991326;28;20762;-90
2021/10/04 02:23:36;;;;;;;24.83;11.02;;;;;;;;;;5008256;28;20532;-90
2021/10/04 02:26:06;;;;;;;35.67;12.45;;;;;;;;;;4994766;28;20033;-90
2021/10/04 02:28:33;;;;;;;26.40;12.30;;;;;;;;;;5085555;23;20761;-90
2021/10/04 02:30:59;;;;;;;23.95;11.63;;;;;;;;;;5010823;28;20037;-89
2021/10/04 02:33:25;;;;;;;25.92;12.65;;;;;;;;;;5012993;28;20136;-89
2021/10/04 02:35:50;;;;;;;30.70;13.65;;;;;;;;;;5013841;28;20108;-90
2021/10/04 02:38:19;;;;;;;18.80;11.43;;;;;;;;;;5015253;28;20032;-89
2021/10/04 02:43:30;;;;;;;25.85;13.88;;;;;;;;;;2056356;22;20036;-90
2021/10/04 02:45:58;;;;;;;22.20;13.13;;;;;;;;;;5060536;23;20068;-90
2021/10/04 02:48:24;;;;;;;25.58;14.05;;;;;;;;;;5044923;28;20114;-91
2021/10/04 02:50:50;;;;;;;26.27;12.70;;;;;;;;;;5082608;23;20064;-90
2021/10/04 02:58:22;;;;;;;29.92;14.25;;;;;;;;;;5027753;28;20053;-90
2021/10/04 03:00:48;;;;;;;29.08;14.95;;;;;;;;;;5014608;28;20115;-90
2021/10/04 03:03:13;;;;;;;23.40;16.33;;;;;;;;;;5014135;28;20032;-90
2021/10/04 03:05:39;;;;;;;24.35;14.95;;;;;;;;;;5014174;28;20025;-90
2021/10/04 03:10:39;;;;;;;27.85;14.68;;;;;;;;;;5040804;23;20053;-90
2021/10/04 03:13:12;;;;;;;26.60;15.43;;;;;;;;;;5191208;22;20182;-91
2021/10/04 03:29:30;;;;;;;30.08;17.13;;;;;;;;;;2234621;22;20315;-90
2021/10/04 03:34:28;;;;;;;;;;;;;;;;;;5041961;22;20061;-90
2021/10/04 03:37:00;;;;;;;25.75;15.25;;;;;;;;;;5125402;23;20023;-90
2021/10/04 03:39:26;;;;;;;35.25;17.48;;;;;;;;;;5033235;28;20029;-90
2021/10/04 03:41:52;;;;;;;28.52;17.25;;;;;;;;;;5036735;28;20044;-89
2021/10/04 03:44:18;;;;;;;26.50;15.60;;;;;;;;;;5032886;28;20720;-89
2021/10/04 03:46:47;;;;;;;27.95;16.50;;;;;;;;;;5033393;28;20021;-90
2021/10/04 03:49:16;;;;;;;33.85;18.20;;;;;;;;;;5436917;22;20058;-91
2021/10/04 03:51:50;;;;;;;36.60;17.45;;;;;;;;;;5017324;23;20203;-90
2021/10/04 04:00:01;;;;;;;29.55;17.75;;;;;;;;;;5029939;28;20143;-90
2021/10/04 04:02:28;;;;;;;29.00;17.90;;;;;;;;;;5010720;28;20124;-90
2021/10/04 04:04:54;;;;;;;31.65;16.77;;;;;;;;;;4995813;28;20476;-90
2021/10/04 04:12:33;;;;;;;29.38;17.15;;;;;;;;;;4985668;28;20054;-90
2021/10/04 04:17:27;;;;;;;29.42;17.85;;;;;;;;;;5074671;23;20072;-90
2021/10/04 04:20:06;;;;;;;25.05;16.30;;;;;;;;;;5050327;23;20871;-90
2021/10/04 04:25:07;;;;;;;39.20;18.30;;;;;;;;;;5098098;23;20021;-91
2021/10/04 04:32:55;;;;;;;28.15;16.90;;;;;;;;;;5032844;28;20054;-90
2021/10/04 04:35:21;;;;;;;28.23;17.48;;;;;;;;;;5017084;28;20553;-89
2021/10/04 04:37:46;;;;;;;26.95;16.88;;;;;;;;;;5015668;28;20032;-90
2021/10/04 04:40:17;;;;;;;29.83;17.00;;;;;;;;;;5016177;28;20025;-90
2021/10/04 04:51:19;;;;;;;29.15;17.95;;;;;;;;;;2173034;22;20291;31
2021/10/04 04:53:48;;;;;;;27.07;18.47;;;;;;;;;;4992563;28;20057;-90
2021/10/04 04:56:23;;;;;;;26.83;17.27;;;;;;;;;;5001805;28;20042;-90
2021/10/04 04:58:54;;;;;;;32.35;18.77;;;;;;;;;;4992334;28;20029;-90
2021/10/04 05:01:21;;;;;;;33.10;19.63;;;;;;;;;;5013203;28;20029;-90
2021/10/04 05:03:50;;;;;;;29.63;18.58;;;;;;;;;;5011604;28;20058;-90
2021/10/04 05:06:19;;;;;;;28.20;17.83;;;;;;;;;;5060726;23;20068;-90
2021/10/04 05:08:46;;;;;;;24.73;17.20;;;;;;;;;;5034762;28;20072;-90
2021/10/04 05:11:15;;;;;;;28.67;17.30;;;;;;;;;;5035242;28;20024;-90
2021/10/04 05:13:47;;;;;;;30.92;18.13;;;;;;;;;;5034879;28;20025;-91
2021/10/04 05:16:18;;;;;;;35.08;17.40;;;;;;;;;;5056596;23;20072;-90
2021/10/04 05:26:58;;;;;;;30.58;18.13;;;;;;;;;;5040636;22;20096;-90
2021/10/04 05:29:24;;;;;;;28.92;18.02;;;;;;;;;;5033638;28;20440;-90
2021/10/04 05:31:52;;;;;;;30.95;19.88;;;;;;;;;;5035240;28;20098;-90
2021/10/04 05:37:22;;;;;;;31.42;18.40;;;;;;;;;;5059083;23;20569;-91
2021/10/04 05:42:18;;;;;;;34.47;17.73;;;;;;;;;;5185257;23;20263;-90
2021/10/04 06:54:32;;;;;;;24.15;13.75;;;;;;;;;;4969749;28;20058;-90
2021/10/04 07:05:45;;;;;;;23.58;12.25;;;;;;;;;;2278192;22;20024;-89
2021/10/04 07:08:13;;;;;;;22.77;11.50;;;;;;;;;;5044591;28;20080;-90
2021/10/04 07:13:17;;;;;;;28.45;14.13;;;;;;;;;;5041673;23;20049;-90
2021/10/04 07:18:15;;;;;;;24.55;14.05;;;;;;;;;;4988823;28;20068;-90
2021/10/04 07:54:10;;;;;;;13.98;8.95;;;;;;;;;;5031804;28;20068;-90
2021/10/04 07:56:39;;;;;;;19.40;10.15;;;;;;;;;;5017059;28;20021;-89
2021/10/04 07:59:15;;;;;;;14.20;9.73;;;;;;;;;;5015721;28;20036;-90
2021/10/04 08:01:41;;;;;;;17.98;9.38;;;;;;;;;;5016318;28;20029;-90
2021/10/04 08:04:06;;;;;;;17.83;9.63;;;;;;;;;;5017330;28;20025;-89
2021/10/04 08:06:31;;;;;;;18.23;9.80;;;;;;;;;;5034442;28;20025;-89
2021/10/04 08:08:57;;;;;;;17.10;9.68;;;;;;;;;;5016419;28;20267;-89
2021/10/04 08:11:24;;;;;;;15.70;8.90;;;;;;;;;;5016351;28;20030;-89
2021/10/04 08:13:50;;;;;;;21.23;10.60;;;;;;;;;;5016444;28;20058;-89
2021/10/04 08:16:21;;;;;;;19.75;8.57;;;;;;;;;;5015174;28;20032;-90
2021/10/04 08:18:49;;;;;;;17.13;9.40;;;;;;;;;;5015778;28;20028;-89
2021/10/04 08:21:16;;;;;;;13.75;8.85;;;;;;;;;;5015930;28;20033;-89
2021/10/04 08:23:41;;;;;;;18.35;10.05;;;;;;;;;;5015992;28;20028;-89
2021/10/04 08:26:07;;;;;;;22.00;9.68;;;;;;;;;;5015996;28;20448;-89
2021/10/04 08:28:32;;;;;;;14.32;9.05;;;;;;;;;;5016064;28;20020;-89
2021/10/04 08:30:58;;;;;;;13.75;8.32;;;;;;;;;;5015834;28;20091;-90
2021/10/04 08:33:23;;;;;;;17.05;8.25;;;;;;;;;;5015386;28;20057;-90
2021/10/04 08:35:48;;;;;;;15.65;7.90;;;;;;;;;;5016282;28;20017;-90
2021/10/04 08:38:14;;;;;;;16.17;9.07;;;;;;;;;;5015921;28;20500;-89
2021/10/04 08:40:40;;;;;;;20.30;8.98;;;;;;;;;;5033526;28;20377;-89
2021/10/04 08:43:05;;;;;;;15.30;9.10;;;;;;;;;;5015893;28;20044;-90
2021/10/04 08:45:33;;;;;;;21.15;8.18;;;;;;;;;;4999801;28;20460;-89
2021/10/04 08:47:59;;;;;;;17.02;9.18;;;;;;;;;;5015246;28;20022;-89
2021/10/04 08:50:28;;;;;;;17.52;7.88;;;;;;;;;;4996766;28;20025;-89
2021/10/04 08:52:54;;;;;;;18.05;8.30;;;;;;;;;;5001098;28;20481;-89
2021/10/04 08:55:21;;;;;;;16.15;8.05;;;;;;;;;;5170915;23;20095;-89
2021/10/04 08:57:46;;;;;;;17.08;8.70;;;;;;;;;;4996118;28;20038;-89
2021/10/04 09:00:11;;;;;;;19.77;8.70;;;;;;;;;;5011951;28;20022;-89
2021/10/04 09:02:37;;;;;;;14.18;8.32;;;;;;;;;;4995687;28;20041;-89
2021/10/04 09:05:28;;;;;;;16.35;9.13;;;;;;;;;;5012296;28;20401;-89
2021/10/04 09:07:55;;;;;;;13.13;7.28;;;;;;;;;;5012175;28;20520;-89
2021/10/04 09:10:21;;;;;;;14.32;7.88;;;;;;;;;;5126311;23;20042;-89
2021/10/04 09:12:54;;;;;;;16.23;7.55;;;;;;;;;;5004309;23;20084;-89
2021/10/04 09:15:29;;;;;;;13.45;8.48;;;;;;;;;;5011882;28;20022;-89
2021/10/04 09:17:54;;;;;;;16.70;7.55;;;;;;;;;;4995180;23;20078;-89
2021/10/04 09:20:20;;;;;;;17.83;8.07;;;;;;;;;;4974802;28;20444;-89
2021/10/04 09:22:46;;;;;;;16.77;7.68;;;;;;;;;;4957025;28;20042;-89
2021/10/04 09:35:25;;;;;;;16.05;7.65;;;;;;;;;;5371036;23;20061;-90
2021/10/04 09:37:55;;;;;;;15.10;7.22;;;;;;;;;;5366141;22;20070;-90
2021/10/04 10:21:43;;;;;;;15.13;5.65;;;;;;;;;;5071171;22;20064;-90
2021/10/04 10:29:23;;;;;;;10.68;4.97;;;;;;;;;;6137172;22;20011;-89
2021/10/04 10:34:23;;;;;;;9.18;5.43;;;;;;;;;;5007685;26;20078;-84
2021/10/04 10:37:09;;;;;;;11.47;5.33;;;;;;;;;;4992239;28;20430;-90
2021/10/04 10:39:42;;;;;;;12.65;6.20;;;;;;;;;;5065517;23;20321;-87
2021/10/04 10:42:07;;;;;;;;;;;;;;;;;;5017127;28;20075;-88
2021/10/04 10:44:32;;;;;;;10.45;6.00;;;;;;;;;;5031177;28;19909;-87
2021/10/04 10:46:57;;;;;;;15.82;6.25;;;;;;;;;;5337131;23;20057;-89
2021/10/04 10:49:42;;;;;;;10.75;5.90;;;;;;;;;;5014560;28;20030;-89
2021/10/04 10:54:52;;;;;;;8.68;5.50;;;;;;;;;;5258884;22;20048;-90
2021/10/04 10:57:17;;;;;;;11.73;5.50;;;;;;;;;;5034205;28;20040;-89
2021/10/04 10:59:43;;;;;;;9.80;4.82;;;;;;;;;;5034256;28;20029;-89
2021/10/04 11:02:28;;;;;;;11.48;5.22;;;;;;;;;;5033621;28;20029;-90
2021/10/04 11:04:56;;;;;;;10.30;4.82;;;;;;;;;;5033010;28;20055;-89
2021/10/04 11:07:54;;;;;;;8.27;4.95;;;;;;;;;;5033046;28;20040;-89
2021/10/04 11:10:26;;;;;;;11.40;4.45;;;;;;;;;;5050806;28;20021;-89
2021/10/04 11:13:07;;;;;;;9.43;4.68;;;;;;;;;;5033187;28;20397;-89
2021/10/04 11:15:33;;;;;;;15.05;5.00;;;;;;;;;;5032158;28;20020;-89
2021/10/04 11:18:01;;;;;;;9.13;4.63;;;;;;;;;;5033108;28;20469;-89
2021/10/04 11:25:24;;;;;;;11.68;4.40;;;;;;;;;;5049107;28;20484;-89
2021/10/04 11:27:49;;;;;;;10.20;4.60;;;;;;;;;;5022194;28;20021;-89
2021/10/04 11:30:16;;;;;;;13.50;4.93;;;;;;;;;;5013662;28;20622;-90
2021/10/04 11:33:02;;;;;;;14.25;4.35;;;;;;;;;;5039407;23;20754;-89
2021/10/04 11:35:40;;;;;;;10.90;4.30;;;;;;;;;;5030192;28;20493;-90
2021/10/04 11:38:09;;;;;;;6.85;3.97;;;;;;;;;;5010698;28;20618;-90
2021/10/04 11:40:46;;;;;;;10.73;4.20;;;;;;;;;;5015824;23;20077;-89
2021/10/04 11:43:16;;;;;;;10.63;4.18;;;;;;;;;;4995361;23;20085;-90
2021/10/04 11:45:41;;;;;;;10.20;5.35;;;;;;;;;;5010537;28;20049;-89
2021/10/04 11:50:46;;;;;;;8.45;5.00;;;;;;;;;;5471962;22;20672;-90
2021/10/04 11:53:15;;;;;;;12.63;5.35;;;;;;;;;;5076579;22;20144;-90
2021/10/04 12:15:47;;;;;;;15.30;5.32;;;;;;;;;;3812657;22;20291;-89
2021/10/04 12:18:20;;;;;;;13.07;4.60;;;;;;;;;;1743531;22;20297;-89
2021/10/04 12:20:45;;;;;;;14.13;4.55;;;;;;;;;;5031450;28;20527;-90
2021/10/04 12:28:19;;;;;;;12.23;3.65;;;;;;;;;;5034826;28;20053;-90
2021/10/04 12:41:06;;;;;;;9.27;3.38;;;;;;;;;;2005219;22;20308;-89
2021/10/04 13:22:04;;;;;;;9.80;3.50;;;;;;;;;;1988595;23;8813784;-89
2021/10/04 13:30:00;;;;;;;8.00;3.47;;;;;;;;;;1675072;22;20461;31
2021/10/04 13:32:29;;;;;;;6.03;2.70;;;;;;;;;;5020106;28;20073;-90
2021/10/04 13:48:06;;;;;;;4.93;1.92;;;;;;;;;;2416645;22;21490;-90
2021/10/04 13:50:33;;;;;;;4.70;2.05;;;;;;;;;;5030206;28;20053;-91
2021/10/04 13:53:07;;;;;;;14.30;2.60;;;;;;;;;;5052127;28;20021;-90
2021/10/04 13:55:38;;;;;;;4.82;2.30;;;;;;;;;;5034368;28;20021;-90
2021/10/04 13:58:16;;;;;;;4.88;2.00;;;;;;;;;;5052351;28;20107;-90
2021/10/04 14:00:43;;;;;;;4.82;1.65;;;;;;;;;;5035099;28;20036;-90
2021/10/04 14:05:48;;;;;;;7.85;2.45;;;;;;;;;;2268249;22;20209;-90
2021/10/04 14:16:28;;;;;;;7.88;2.13;;;;;;;;;;4992303;28;20146;-91
2021/10/04 14:18:54;;;;;;;6.50;1.98;;;;;;;;;;4976197;28;20076;-91
2021/10/04 14:23:55;;;;;;;6.53;2.30;;;;;;;;;;5126291;23;20087;-90
2021/10/04 14:26:24;;;;;;;8.02;2.35;;;;;;;;;;5034053;28;20048;-90
2021/10/04 14:28:51;;;;;;;5.60;2.10;;;;;;;;;;5015381;28;20017;-90
2021/10/04 14:31:17;;;;;;;9.77;2.33;;;;;;;;;;5015464;28;20029;-90
2021/10/04 14:33:44;;;;;;;4.20;1.90;;;;;;;;;;5012946;28;20098;-90
2021/10/04 14:36:16;;;;;;;5.75;1.90;;;;;;;;;;5030486;28;20025;-91
2021/10/04 14:38:51;;;;;;;10.13;2.42;;;;;;;;;;5012007;28;20034;-90
2021/10/04 14:41:18;;;;;;;10.15;2.20;;;;;;;;;;5014103;28;20025;-91
2021/10/04 14:43:45;;;;;;;6.95;2.17;;;;;;;;;;5023707;28;20733;-90
2021/10/04 14:46:15;;;;;;;6.63;2.10;;;;;;;;;;5030546;28;20025;-91
2021/10/04 14:48:43;;;;;;;8.73;2.28;;;;;;;;;;5013971;28;20374;-90
2021/10/04 14:51:08;;;;;;;6.57;2.05;;;;;;;;;;5014532;28;20036;-91
2021/10/04 14:53:36;;;;;;;6.35;2.05;;;;;;;;;;5013945;28;20406;-90
2021/10/04 14:56:04;;;;;;;5.53;2.10;;;;;;;;;;5014090;28;20024;-90
2021/10/04 14:58:29;;;;;;;7.07;2.47;;;;;;;;;;5031173;28;20025;-90
2021/10/04 15:00:59;;;;;;;5.43;1.58;;;;;;;;;;5014435;28;20025;-90
2021/10/04 15:03:25;;;;;;;6.43;1.70;;;;;;;;;;5014533;28;20017;-90
2021/10/04 15:05:51;;;;;;;7.40;2.38;;;;;;;;;;5016553;28;20028;-90
2021/10/04 15:08:16;;;;;;;5.88;1.83;;;;;;;;;;5034084;28;20104;-90
2021/10/04 15:10:42;;;;;;;7.37;1.80;;;;;;;;;;5033906;28;20044;-90
2021/10/04 15:13:07;;;;;;;7.57;1.70;;;;;;;;;;5051966;28;20107;-90
2021/10/04 15:15:33;;;;;;;6.82;2.10;;;;;;;;;;5033188;28;20321;-90
2021/10/04 15:17:58;;;;;;;6.82;1.83;;;;;;;;;;5033284;28;20029;-90
2021/10/04 15:22:53;;;;;;;7.45;2.05;;;;;;;;;;5509685;23;20054;-90
2021/10/04 15:25:20;;;;;;;5.60;1.45;;;;;;;;;;4972573;28;20043;-89
2021/10/04 15:27:46;;;;;;;4.63;1.80;;;;;;;;;;4951368;28;20023;-90
2021/10/04 15:30:11;;;;;;;11.97;2.80;;;;;;;;;;4951266;29;20125;-90
2021/10/04 15:32:36;;;;;;;7.60;2.03;;;;;;;;;;4935460;29;20089;-90
2021/10/04 15:35:02;;;;;;;8.23;1.90;;;;;;;;;;4935647;29;20263;-90
2021/10/04 15:37:27;;;;;;;5.90;2.15;;;;;;;;;;4936173;29;20092;-89
2021/10/04 15:39:52;;;;;;;7.18;2.00;;;;;;;;;;4936698;29;20162;-89
2021/10/04 15:42:18;;;;;;;5.83;2.40;;;;;;;;;;4935782;29;20744;-89
2021/10/04 15:44:43;;;;;;;7.47;2.30;;;;;;;;;;4935743;29;20027;-89
2021/10/04 15:47:09;;;;;;;6.50;1.90;;;;;;;;;;4935480;29;21023;-89
2021/10/04 15:49:34;;;;;;;6.00;2.53;;;;;;;;;;4952843;28;20635;-89
2021/10/04 15:52:01;;;;;;;7.57;2.67;;;;;;;;;;4953100;28;20361;-89
2021/10/04 15:54:27;;;;;;;7.50;2.08;;;;;;;;;;4952074;29;20267;-89
2021/10/04 15:56:52;;;;;;;5.93;1.67;;;;;;;;;;4952949;28;20030;-89
2021/10/04 15:59:18;;;;;;;8.90;1.52;;;;;;;;;;4935634;29;20023;-89
2021/10/04 16:01:45;;;;;;;5.95;1.95;;;;;;;;;;4954703;28;20111;-89
2021/10/04 16:04:10;;;;;;;6.63;1.90;;;;;;;;;;4939066;29;20075;-89
2021/10/04 16:06:36;;;;;;;9.57;2.10;;;;;;;;;;4956827;28;20728;-89
2021/10/04 16:09:01;;;;;;;7.15;1.70;;;;;;;;;;4939094;29;20944;-89
2021/10/04 16:11:28;;;;;;;8.38;1.80;;;;;;;;;;4953219;28;20074;-89
2021/10/04 16:13:54;;;;;;;9.55;2.35;;;;;;;;;;4950988;28;20019;-89
2021/10/04 16:16:19;;;;;;;10.50;1.65;;;;;;;;;;4954520;28;20181;-89
2021/10/04 16:18:44;;;;;;;8.27;2.10;;;;;;;;;;4934780;29;20081;-89
2021/10/04 16:21:10;;;;;;;9.33;2.40;;;;;;;;;;4934496;29;20050;-89
2021/10/04 16:23:35;;;;;;;5.57;2.00;;;;;;;;;;4951559;28;20144;-88
2021/10/04 16:26:01;;;;;;;9.13;2.30;;;;;;;;;;4953099;28;20056;-88
2021/10/04 16:28:26;;;;;;;6.75;1.77;;;;;;;;;;4952663;28;20051;-89
2021/10/04 16:30:51;;;;;;;4.88;1.60;;;;;;;;;;4935333;29;20023;-89
2021/10/04 16:33:20;;;;;;;6.70;2.17;;;;;;;;;;4952656;28;20110;-89
2021/10/04 16:35:46;;;;;;;10.48;2.03;;;;;;;;;;4932415;29;20735;-89
2021/10/04 16:38:11;;;;;;;8.88;2.40;;;;;;;;;;4931874;29;20028;-89
2021/10/04 16:40:37;;;;;;;10.32;2.10;;;;;;;;;;4933017;29;20016;-88
2021/10/04 16:43:03;;;;;;;9.82;2.30;;;;;;;;;;4938907;29;20049;-89
2021/10/04 16:45:28;;;;;;;7.23;2.30;;;;;;;;;;4935492;29;20023;-89
2021/10/04 16:47:54;;;;;;;9.82;2.28;;;;;;;;;;4931389;29;20035;-89
2021/10/04 16:50:21;;;;;;;7.43;2.55;;;;;;;;;;4949853;29;20033;-89
2021/10/04 16:52:46;;;;;;;6.28;2.45;;;;;;;;;;4952807;28;20494;-89
2021/10/04 16:55:12;;;;;;;7.85;1.90;;;;;;;;;;4935229;29;20031;-89
2021/10/04 16:57:37;;;;;;;7.10;1.83;;;;;;;;;;4951303;28;20030;-88
2021/10/04 17:00:07;;;;;;;8.25;2.00;;;;;;;;;;4952397;28;20023;-88
2021/10/04 17:02:32;;;;;;;7.35;1.92;;;;;;;;;;4951440;28;20023;-88
2021/10/04 17:04:58;;;;;;;5.70;1.80;;;;;;;;;;4934479;29;20034;-88
2021/10/04 17:07:23;;;;;;;7.25;1.85;;;;;;;;;;4951273;28;20455;-89
2021/10/04 17:09:48;;;;;;;5.60;1.95;;;;;;;;;;4951218;28;20046;-88
2021/10/04 17:12:15;;;;;;;5.03;1.80;;;;;;;;;;4929880;29;20457;-88
2021/10/04 17:14:40;;;;;;;10.50;2.17;;;;;;;;;;4933047;29;20494;-88
2021/10/04 17:17:07;;;;;;;7.72;2.00;;;;;;;;;;4954106;28;20027;-90
2021/10/04 17:19:38;;;;;;;11.38;2.15;;;;;;;;;;4935394;29;20027;-90
2021/10/04 17:22:03;;;;;;;8.38;1.85;;;;;;;;;;4930071;29;20492;-89
2021/10/04 17:24:29;;;;;;;9.02;2.53;;;;;;;;;;4964022;23;20062;-89
2021/10/04 17:26:54;;;;;;;7.78;2.13;;;;;;;;;;4949671;28;20023;-89
2021/10/04 17:29:21;;;;;;;14.50;3.08;;;;;;;;;;4934072;29;20495;-89
2021/10/04 17:31:47;;;;;;;6.45;1.88;;;;;;;;;;4931155;29;20101;-89
2021/10/04 17:34:12;;;;;;;5.80;2.08;;;;;;;;;;4947978;29;20027;-88
2021/10/04 17:36:38;;;;;;;5.55;2.00;;;;;;;;;;4933896;28;20019;-89
2021/10/04 17:39:04;;;;;;;9.00;2.38;;;;;;;;;;4934985;29;20089;-89
2021/10/04 17:41:30;;;;;;;7.45;2.00;;;;;;;;;;4936947;29;20147;-89
2021/10/04 17:43:55;;;;;;;6.07;2.20;;;;;;;;;;4954195;29;20654;-89
2021/10/04 17:46:20;;;;;;;52.72;33.92;;;;;;;;;;4937219;29;20086;-89
2021/10/04 17:48:46;;;;;;;17.40;6.38;;;;;;;;;;4937345;29;20826;-87
2021/10/04 17:51:11;;;;;;;7.65;5.07;;;;;;;;;;4953932;29;20471;-87
2021/10/04 17:53:37;;;;;;;8.02;2.78;;;;;;;;;;4953921;29;20853;-88
2021/10/04 17:56:02;;;;;;;7.00;1.85;;;;;;;;;;4937021;29;20114;-88
2021/10/04 18:00:58;;;;;;;6.03;2.03;;;;;;;;;;5040332;23;20060;-88
2021/10/04 18:03:23;;;;;;;6.15;2.20;;;;;;;;;;5033756;28;20025;-88
2021/10/04 18:05:52;;;;;;;9.85;2.20;;;;;;;;;;5034352;28;20052;-89
2021/10/04 18:08:21;;;;;;;5.57;2.08;;;;;;;;;;5096778;22;20192;-87
2021/10/04 18:13:19;;;;;;;8.65;2.03;;;;;;;;;;1661383;22;20488;-88
2021/10/04 18:15:49;;;;;;;7.93;2.28;;;;;;;;;;5010761;28;20145;-88
2021/10/04 18:18:15;;;;;;;7.43;2.13;;;;;;;;;;5014095;28;20382;-88
2021/10/04 18:20:40;;;;;;;7.65;2.30;;;;;;;;;;5013867;28;20021;-88
2021/10/04 18:23:06;;;;;;;8.73;2.60;;;;;;;;;;5031765;28;20413;-88
2021/10/04 18:25:35;;;;;;;10.10;2.60;;;;;;;;;;5014156;28;20025;-89
2021/10/04 18:28:01;;;;;;;6.50;2.25;;;;;;;;;;5014035;28;20028;-90
2021/10/04 18:30:27;;;;;;;11.43;2.65;;;;;;;;;;5100239;23;20053;-89
2021/10/04 18:32:53;;;;;;;6.32;2.40;;;;;;;;;;5013342;28;20520;-89
2021/10/04 18:35:20;;;;;;;9.20;2.20;;;;;;;;;;5574275;22;20112;-90
2021/10/04 18:37:46;;;;;;;12.25;2.65;;;;;;;;;;5029812;28;20099;-89
2021/10/04 18:40:14;;;;;;;4.60;1.90;;;;;;;;;;5035034;28;20509;-89
2021/10/04 18:42:40;;;;;;;7.05;1.73;;;;;;;;;;5052867;28;20021;-89
2021/10/04 18:45:06;;;;;;;5.47;2.00;;;;;;;;;;5033869;28;20025;-89
2021/10/04 18:47:33;;;;;;;13.63;2.35;;;;;;;;;;5033902;28;20256;-89
2021/10/04 18:49:58;;;;;;;9.70;2.30;;;;;;;;;;5034087;28;20041;-89
2021/10/04 18:52:23;;;;;;;11.48;2.67;;;;;;;;;;5033537;28;20488;-89
2021/10/04 18:54:48;;;;;;;6.45;1.88;;;;;;;;;;5034358;28;20025;-89
2021/10/04 18:57:14;;;;;;;10.90;2.72;;;;;;;;;;5051677;28;20051;-89
2021/10/04 18:59:39;;;;;;;6.95;2.20;;;;;;;;;;5033426;28;20045;-89
2021/10/04 19:02:05;;;;;;;7.60;1.98;;;;;;;;;;5063985;23;20515;-89
2021/10/04 19:04:30;;;;;;;7.25;2.80;;;;;;;;;;5005661;28;20543;-89
2021/10/04 19:06:56;;;;;;;12.32;2.42;;;;;;;;;;5014371;28;20022;-89
2021/10/04 19:09:21;;;;;;;7.80;2.45;;;;;;;;;;5024358;28;20026;-89
2021/10/04 19:11:46;;;;;;;9.57;1.92;;;;;;;;;;5030173;28;20028;-89
2021/10/04 19:14:11;;;;;;;11.38;2.58;;;;;;;;;;5023389;28;20021;-89
2021/10/04 19:16:37;;;;;;;7.18;2.17;;;;;;;;;;5030077;28;20033;-89
2021/10/04 19:19:02;;;;;;;6.07;2.05;;;;;;;;;;5032051;28;20013;-89
2021/10/04 19:21:27;;;;;;;9.70;2.13;;;;;;;;;;5050377;28;20060;-90
2021/10/04 19:23:53;;;;;;;9.57;2.67;;;;;;;;;;5050602;28;20259;-89
2021/10/04 19:26:19;;;;;;;10.93;2.50;;;;;;;;;;5051427;28;20408;-89
2021/10/04 19:28:45;;;;;;;7.25;2.15;;;;;;;;;;5032989;28;20024;-89
2021/10/04 19:31:17;;;;;;;9.63;2.63;;;;;;;;;;5033376;28;20086;-88
2021/10/04 19:33:46;;;;;;;9.75;3.00;;;;;;;;;;5033026;28;20025;-89
2021/10/04 19:36:11;;;;;;;10.38;2.50;;;;;;;;;;5049471;28;20028;-89
2021/10/04 19:38:39;;;;;;;6.95;2.33;;;;;;;;;;5032948;28;20025;-89
2021/10/04 19:41:14;;;;;;;12.48;3.00;;;;;;;;;;5033045;28;20068;-89
2021/10/04 19:43:42;;;;;;;10.20;2.65;;;;;;;;;;5033257;28;20024;-89
2021/10/04 19:46:07;;;;;;;8.02;2.47;;;;;;;;;;5032573;28;20029;-90
2021/10/04 19:48:33;;;;;;;5.30;2.60;;;;;;;;;;5033179;28;20371;-88
2021/10/04 19:51:00;;;;;;;17.70;2.30;;;;;;;;;;5032076;28;20029;-89
2021/10/04 19:53:30;;;;;;;13.90;3.38;;;;;;;;;;5032706;28;20017;-89
2021/10/04 19:55:55;;;;;;;8.27;2.33;;;;;;;;;;5051938;28;20021;-89
2021/10/04 19:58:20;;;;;;;8.07;2.63;;;;;;;;;;5032833;28;20032;-89
2021/10/04 20:00:46;;;;;;;5.43;2.40;;;;;;;;;;5032927;28;20441;-89
2021/10/04 20:03:15;;;;;;;8.52;2.90;;;;;;;;;;5032213;28;20517;-89
2021/10/04 20:05:40;;;;;;;13.05;3.33;;;;;;;;;;5050589;28;20025;-89
2021/10/04 20:08:05;;;;;;;7.30;2.15;;;;;;;;;;5050538;28;20491;-89
2021/10/04 20:10:31;;;;;;;9.48;2.47;;;;;;;;;;5032849;28;20021;-90
2021/10/04 20:12:56;;;;;;;6.22;2.20;;;;;;;;;;5050472;28;20021;-89
2021/10/04 20:15:24;;;;;;;8.27;2.28;;;;;;;;;;5032642;28;20021;-89
2021/10/04 20:17:50;;;;;;;4.80;2.65;;;;;;;;;;5032838;28;20108;-89
2021/10/04 20:20:15;;;;;;;6.68;2.42;;;;;;;;;;5051078;28;20088;-89
2021/10/04 20:22:46;;;;;;;6.15;1.90;;;;;;;;;;5050630;28;20465;-88
2021/10/04 20:25:14;;;;;;;8.83;2.97;;;;;;;;;;5033345;28;20116;-89
2021/10/04 20:27:40;;;;;;;5.85;2.40;;;;;;;;;;5032895;28;20021;-89
2021/10/04 20:30:06;;;;;;;7.75;2.17;;;;;;;;;;5032719;28;20492;-89
2021/10/04 20:32:31;;;;;;;5.85;2.10;;;;;;;;;;5032634;28;20024;-89
2021/10/04 20:34:56;;;;;;;9.10;2.13;;;;;;;;;;5032999;28;20423;-89
2021/10/04 20:37:23;;;;;;;9.10;2.08;;;;;;;;;;5050465;28;20025;-89
2021/10/04 20:39:48;;;;;;;7.35;2.25;;;;;;;;;;5050591;28;20048;-89
2021/10/04 20:42:14;;;;;;;8.60;2.40;;;;;;;;;;5033609;28;20051;-89
2021/10/04 20:44:39;;;;;;;10.05;2.53;;;;;;;;;;5050283;28;20029;-89
2021/10/04 20:47:04;;;;;;;5.60;1.75;;;;;;;;;;5051579;28;20033;-89
2021/10/04 20:49:30;;;;;;;12.38;2.85;;;;;;;;;;5036135;28;20106;-89
2021/10/04 20:51:56;;;;;;;6.30;1.83;;;;;;;;;;5035779;28;20025;-89
2021/10/04 20:54:23;;;;;;;8.32;2.13;;;;;;;;;;5036101;28;20040;-89
2021/10/04 20:56:55;;;;;;;7.78;1.83;;;;;;;;;;5037362;28;20021;-89
2021/10/04 20:59:20;;;;;;;9.18;1.90;;;;;;;;;;5035598;28;20061;-89
2021/10/04 21:01:46;;;;;;;3.97;1.83;;;;;;;;;;5053257;28;20072;-88
2021/10/04 21:04:13;;;;;;;7.88;2.22;;;;;;;;;;5035749;28;20461;-89
2021/10/04 21:06:38;;;;;;;6.88;1.98;;;;;;;;;;5035417;28;20035;-89
2021/10/04 21:09:04;;;;;;;9.27;3.83;;;;;;;;;;5053508;28;20029;-89
2021/10/04 21:11:29;;;;;;;8.88;2.20;;;;;;;;;;5053665;28;20024;-89
2021/10/04 21:13:54;;;;;;;7.32;2.17;;;;;;;;;;5053476;28;20098;-89
2021/10/04 21:16:20;;;;;;;4.55;2.08;;;;;;;;;;5035513;28;20021;-89
2021/10/04 21:18:45;;;;;;;5.22;2.15;;;;;;;;;;5035313;28;20021;-88
2021/10/04 21:21:11;;;;;;;10.38;2.55;;;;;;;;;;5035671;28;20150;-88